Portada
METAR-TAF:

METAR-TAF

Aeroports :

Karachi, Pakistan

latitud: 24-54N, longitud: 067-08E, altitud: 21 m

Observació

L'informe es va fer fa 39 minuts, a les 00:25 UTC
Vent 4 kt del Nord/Nord-Est
Temperatura 12°C
Humitat 38%
Pressió 1016 hPa
Visibilitat: 6000 m

METAR: OPKC 200025Z 02004KT 6000 NSC 12/M02 Q1016 NOSIG

Hora: 06:04 (01:04 UTC)

Pronòstic

L'informe es va fer fa 3 hores i 34 minuts, a les 21:30 UTC
Pronòstic vàlid del 20 a les 00 UTC al 21 a les 06 UTC
Vent 5 kt del Nord-Oest amb ràfegues de 15 kt
Visibilitat: 6000 m
Temporalment
l' 20 a les 00 UTC al 20 a les 04 UTC
Vent 5 kt del Nord-Est
Visibilitat: 3000 m
fum
Temporalment
l' 20 a les 12 UTC al 20 a les 16 UTC
Vent 7 kt del Oest/Sud-Oest
Visibilitat: 4000 m
fum
Temporalment
l' 21 a les 00 UTC al 21 a les 04 UTC
Vent 5 kt del Nord/Nord-Est
Visibilitat: 3000 m
fum

TAF: OPKC 192130Z 2000/2106 32005G15KT 6000 NSC TEMPO 2000/2004 05005KT 3000 FU NSC TEMPO 2012/2016 24007KT 4000 FU NSC TEMPO 2100/2104 02005KT 3000 FU NSC

Observacions i pronòstics meteorològics de més de 4000 aeroports (METAR i TAF).

Les estacions disponibles són els punts grocs i vermells al mapa.

Posi el ratolí al punt desitjat per veure el nom de l'estació.

Feu clic per veure les observacions i els pronòstics meteorològics.

Per canviar el mapa: feu clic els botons verds amb una creu de color negre per apropar; al botó verd amb un guió per allunyar la imatge; o en les fletxes verdes per a mapes adjacents.


METAR-TAF: